Norbank — PGIS — position and weather

sailwx.info

Track history (hours):
 
Tides and Currents Weather Stations Pressure Air Temp Water Temp Dewpoint Dewpoint Depression Visibility Wind Speed Wind Dir Waves Ship Positions

Norbank

Operator: P & O Ferries

Last reported at 2014-Dec-20 20:30 UTC. Time now 2014-Dec-20 21:33 UTC.
Position N 53°27' W 003°01'.

Length 167 m; draft 6 m.

Type: Ship (hazmat cat A). MMSI: 246213000.

Date/timePositionNaut miles runAvg speedWind from/ knotsBaromVisibWave heightAir tempDewpointWater temp
2014-Dec-20 20:30N 53°27' W 003°01'0 0.0
2014-Dec-20 19:29N 53°27' W 003°01'0 0.0
2014-Dec-20 18:29N 53°27' W 003°01'0 0.0
2014-Dec-20 17:29N 53°27' W 003°01'0 0.5
2014-Dec-20 16:31N 53°27' W 003°01'7 7.0
2014-Dec-20 15:34N 53°32' W 003°09'1716.8
2014-Dec-20 14:32N 53°31' W 003°38'1919.0
2014-Dec-20 13:32N 53°34' W 004°09'25 1.8
2014-Dec-19 23:32N 53°33' W 003°28'1616.7
2014-Dec-19 22:34N 53°27' W 003°02'1 0.7
2014-Dec-19 21:33N 53°27' W 003°01'0 0.0
2014-Dec-19 20:31N 53°27' W 003°01'0 0.0
2014-Dec-19 19:30N 53°27' W 003°01'0 0.0
2014-Dec-19 18:30N 53°27' W 003°01'0 0.0
2014-Dec-19 17:29N 53°27' W 003°01'0 0.4
2014-Dec-19 16:28N 53°27' W 003°01'7 7.6
2014-Dec-19 15:33N 53°32' W 003°09'1817.9
2014-Dec-19 14:33N 53°31' W 003°40'2219.5
2014-Dec-19 13:27N 53°35' W 004°16'13 1.0
2014-Dec-19 00:13N 53°33' W 003°53'1319.5
2014-Dec-18 23:33N 53°33' W 003°31'1817.6
2014-Dec-18 22:33N 53°28' W 003°03'1 1.2
2014-Dec-18 21:33N 53°27' W 003°01'0 0.0
2014-Dec-18 20:28N 53°27' W 003°01'0 0.0
2014-Dec-18 19:34N 53°27' W 003°01'0 0.0
2014-Dec-18 18:33N 53°27' W 003°01'0 0.0
2014-Dec-18 17:33N 53°27' W 003°01'0 0.5
2014-Dec-18 16:33N 53°27' W 003°01'10 9.9
2014-Dec-18 15:33N 53°31' W 003°16'1919.2
2014-Dec-18 14:33N 53°32' W 003°48'4 0.3
2014-Dec-17 23:33N 53°34' W 003°43'1818.3
2014-Dec-17 22:33N 53°32' W 003°12'8 7.9
2014-Dec-17 21:33N 53°27' W 003°01'0 0.4
2014-Dec-17 20:29N 53°27' W 003°01'0 0.0
2014-Dec-17 19:29N 53°27' W 003°01'0 0.0
2014-Dec-17 18:28N 53°27' W 003°01'0 0.0
2014-Dec-17 17:28N 53°27' W 003°01'0 0.4
2014-Dec-17 16:33N 53°27' W 003°01'6 5.9
2014-Dec-17 15:34N 53°31' W 003°08'1919.0
2014-Dec-17 14:33N 53°31' W 003°40'1919.1
2014-Dec-17 13:32N 53°35' W 004°12'14 1.0
2014-Dec-16 23:31N 53°34' W 003°49'1616.0
2014-Dec-16 22:31N 53°32' W 003°22'1313.8
2014-Dec-16 21:33N 53°27' W 003°01'0 0.4
2014-Dec-16 20:29N 53°27' W 003°01'0 0.0
2014-Dec-16 19:29N 53°27' W 003°01'0 0.0
2014-Dec-16 18:29N 53°27' W 003°01'0 0.0
2014-Dec-16 17:28N 53°27' W 003°01'0 0.1
2014-Dec-16 16:33N 53°27' W 003°01'3 2.7
2014-Dec-16 15:34N 53°29' W 003°05'1817.8
2014-Dec-16 14:33N 53°31' W 003°35'1919.1
2014-Dec-16 13:32N 53°34' W 004°07'14 1.0
2014-Dec-15 23:21N 53°33' W 003°44'1519.0
2014-Dec-15 22:33N 53°32' W 003°19'1211.8
2014-Dec-15 21:33N 53°27' W 003°01'0 0.4
2014-Dec-15 20:28N 53°27' W 003°01'0 0.0
2014-Dec-15 19:33N 53°27' W 003°01'0 0.0
2014-Dec-15 18:33N 53°27' W 003°01'0 0.0
2014-Dec-15 17:32N 53°27' W 003°01'0 0.0
2014-Dec-15 16:32N 53°27' W 003°01'0 0.0
2014-Dec-15 15:25N 53°27' W 003°01'0 0.0
2014-Dec-15 14:31N 53°27' W 003°01'0 0.0
2014-Dec-15 13:25N 53°27' W 003°01'0 0.0
2014-Dec-15 12:30N 53°27' W 003°01'0 0.0
2014-Dec-15 11:30N 53°27' W 003°01'0 0.0
2014-Dec-15 10:17N 53°27' W 003°01'0 0.0
2014-Dec-15 09:29N 53°27' W 003°01'0 0.0
2014-Dec-15 08:28N 53°27' W 003°01'0 0.0
2014-Dec-15 07:28N 53°27' W 003°01'0 0.5
2014-Dec-15 06:33N 53°27' W 003°01'4 3.6
2014-Dec-15 05:33N 53°30' W 003°05'1816.4
2014-Dec-15 04:27N 53°31' W 003°36'1516.4
2014-Dec-15 03:33N 53°33' W 004°00'5 0.4
2014-Dec-14 12:17N 53°34' W 004°09'1216.0
2014-Dec-14 11:34N 53°33' W 003°50'1818.1
2014-Dec-14 10:33N 53°32' W 003°19'1211.8
2014-Dec-14 09:33N 53°27' W 003°01'0 0.4
2014-Dec-14 08:28N 53°27' W 003°01'0 0.0
2014-Dec-14 07:28N 53°27' W 003°01'0 0.0
2014-Dec-14 06:33N 53°27' W 003°01'0 0.0
2014-Dec-14 05:33N 53°27' W 003°01'1 0.6
2014-Dec-14 04:34N 53°27' W 003°01'1515.2
2014-Dec-14 03:33N 53°31' W 003°25'2019.5
2014-Dec-14 02:33N 53°33' W 003°59'2 0.1
2014-Dec-13 12:31N 53°34' W 003°60'1717.6
2014-Dec-13 11:33N 53°33' W 003°31'1615.9
2014-Dec-13 10:33N 53°30' W 003°05'4 3.6
2014-Dec-13 09:33N 53°27' W 003°01'0 0.4
2014-Dec-13 08:31N 53°27' W 003°01'0 0.0
2014-Dec-13 07:32N 53°27' W 003°01'0 0.0
2014-Dec-13 06:30N 53°27' W 003°01'0 0.0
2014-Dec-13 05:30N 53°27' W 003°01'1 0.6
2014-Dec-13 04:34N 53°27' W 003°02'2114.9
2014-Dec-13 03:09N 53°31' W 003°37'1016.5
2014-Dec-13 02:34N 53°32' W 003°53'3 0.2
2014-Dec-12 13:11N 53°33' W 003°57'1219.1
2014-Dec-12 12:33N 53°33' W 003°36'1817.8
2014-Dec-12 11:33N 53°31' W 003°07'5 4.9
2014-Dec-12 10:28N 53°27' W 003°01'0 0.5
2014-Dec-12 09:33N 53°27' W 003°01'0 0.0
2014-Dec-12 08:33N 53°27' W 003°01'0 0.0
2014-Dec-12 07:32N 53°27' W 003°01'0 0.0
2014-Dec-12 06:32N 53°27' W 003°01'0 0.4
2014-Dec-12 05:34N 53°27' W 003°01'3 3.0
2014-Dec-12 04:34N 53°29' W 003°05'1211.7
2014-Dec-12 03:33N 53°31' W 003°24'1716.5
2014-Dec-12 02:32N 53°31' W 003°53'3 0.2
2014-Dec-11 12:33N 53°33' W 003°50'1817.7
2014-Dec-11 11:33N 53°32' W 003°20'1212.2
2014-Dec-11 10:33N 53°27' W 003°01'1 0.4
2014-Dec-11 09:22N 53°27' W 003°01'0 0.0
2014-Dec-11 08:33N 53°27' W 003°01'0 0.0
2014-Dec-11 07:33N 53°27' W 003°01'0 0.0
2014-Dec-11 06:33N 53°27' W 003°01'0 0.0
2014-Dec-11 05:33N 53°27' W 003°01'1 0.6
2014-Dec-11 04:33N 53°27' W 003°02'1312.8
2014-Dec-11 03:33N 53°31' W 003°22'1818.1
2014-Dec-11 02:32N 53°32' W 003°53'  
Track history (hours):
 
Tides and Currents Weather Stations Pressure Air Temp Water Temp Dewpoint Dewpoint Depression Visibility Wind Speed Wind Dir Waves Ship Positions

Norbank

Operator: P & O Ferries

Last reported at 2014-Dec-20 20:30 UTC. Time now 2014-Dec-20 21:33 UTC.
Position N 53°27' W 003°01'.

Length 167 m; draft 6 m.

Type: Ship (hazmat cat A). MMSI: 246213000.

Date/timePositionNaut miles runAvg speedWind from/ knotsBaromVisibWave heightAir tempDewpointWater temp
2014-Dec-20 20:30N 53°27' W 003°01'0 0.0
2014-Dec-20 19:29N 53°27' W 003°01'0 0.0
2014-Dec-20 18:29N 53°27' W 003°01'0 0.0
2014-Dec-20 17:29N 53°27' W 003°01'0 0.5
2014-Dec-20 16:31N 53°27' W 003°01'7 7.0
2014-Dec-20 15:34N 53°32' W 003°09'1716.8
2014-Dec-20 14:32N 53°31' W 003°38'1919.0
2014-Dec-20 13:32N 53°34' W 004°09'25 1.8
2014-Dec-19 23:32N 53°33' W 003°28'1616.7
2014-Dec-19 22:34N 53°27' W 003°02'1 0.7
2014-Dec-19 21:33N 53°27' W 003°01'0 0.0
2014-Dec-19 20:31N 53°27' W 003°01'0 0.0
2014-Dec-19 19:30N 53°27' W 003°01'0 0.0
2014-Dec-19 18:30N 53°27' W 003°01'0 0.0
2014-Dec-19 17:29N 53°27' W 003°01'0 0.4
2014-Dec-19 16:28N 53°27' W 003°01'7 7.6
2014-Dec-19 15:33N 53°32' W 003°09'1817.9
2014-Dec-19 14:33N 53°31' W 003°40'2219.5
2014-Dec-19 13:27N 53°35' W 004°16'13 1.0
2014-Dec-19 00:13N 53°33' W 003°53'1319.5
2014-Dec-18 23:33N 53°33' W 003°31'1817.6
2014-Dec-18 22:33N 53°28' W 003°03'1 1.2
2014-Dec-18 21:33N 53°27' W 003°01'0 0.0
2014-Dec-18 20:28N 53°27' W 003°01'0 0.0
2014-Dec-18 19:34N 53°27' W 003°01'0 0.0
2014-Dec-18 18:33N 53°27' W 003°01'0 0.0
2014-Dec-18 17:33N 53°27' W 003°01'0 0.5
2014-Dec-18 16:33N 53°27' W 003°01'10 9.9
2014-Dec-18 15:33N 53°31' W 003°16'1919.2
2014-Dec-18 14:33N 53°32' W 003°48'4 0.3
2014-Dec-17 23:33N 53°34' W 003°43'1818.3
2014-Dec-17 22:33N 53°32' W 003°12'8 7.9
2014-Dec-17 21:33N 53°27' W 003°01'0 0.4
2014-Dec-17 20:29N 53°27' W 003°01'0 0.0
2014-Dec-17 19:29N 53°27' W 003°01'0 0.0
2014-Dec-17 18:28N 53°27' W 003°01'0 0.0
2014-Dec-17 17:28N 53°27' W 003°01'0 0.4
2014-Dec-17 16:33N 53°27' W 003°01'6 5.9
2014-Dec-17 15:34N 53°31' W 003°08'1919.0
2014-Dec-17 14:33N 53°31' W 003°40'1919.1
2014-Dec-17 13:32N 53°35' W 004°12'14 1.0
2014-Dec-16 23:31N 53°34' W 003°49'1616.0
2014-Dec-16 22:31N 53°32' W 003°22'1313.8
2014-Dec-16 21:33N 53°27' W 003°01'0 0.4
2014-Dec-16 20:29N 53°27' W 003°01'0 0.0
2014-Dec-16 19:29N 53°27' W 003°01'0 0.0
2014-Dec-16 18:29N 53°27' W 003°01'0 0.0
2014-Dec-16 17:28N 53°27' W 003°01'0 0.1
2014-Dec-16 16:33N 53°27' W 003°01'3 2.7
2014-Dec-16 15:34N 53°29' W 003°05'1817.8
2014-Dec-16 14:33N 53°31' W 003°35'1919.1
2014-Dec-16 13:32N 53°34' W 004°07'14 1.0
2014-Dec-15 23:21N 53°33' W 003°44'1519.0
2014-Dec-15 22:33N 53°32' W 003°19'1211.8
2014-Dec-15 21:33N 53°27' W 003°01'0 0.4
2014-Dec-15 20:28N 53°27' W 003°01'0 0.0
2014-Dec-15 19:33N 53°27' W 003°01'0 0.0
2014-Dec-15 18:33N 53°27' W 003°01'0 0.0
2014-Dec-15 17:32N 53°27' W 003°01'0 0.0
2014-Dec-15 16:32N 53°27' W 003°01'0 0.0
2014-Dec-15 15:25N 53°27' W 003°01'0 0.0
2014-Dec-15 14:31N 53°27' W 003°01'0 0.0
2014-Dec-15 13:25N 53°27' W 003°01'0 0.0
2014-Dec-15 12:30N 53°27' W 003°01'0 0.0
2014-Dec-15 11:30N 53°27' W 003°01'0 0.0
2014-Dec-15 10:17N 53°27' W 003°01'0 0.0
2014-Dec-15 09:29N 53°27' W 003°01'0 0.0
2014-Dec-15 08:28N 53°27' W 003°01'0 0.0
2014-Dec-15 07:28N 53°27' W 003°01'0 0.5
2014-Dec-15 06:33N 53°27' W 003°01'4 3.6
2014-Dec-15 05:33N 53°30' W 003°05'1816.4
2014-Dec-15 04:27N 53°31' W 003°36'1516.4
2014-Dec-15 03:33N 53°33' W 004°00'5 0.4
2014-Dec-14 12:17N 53°34' W 004°09'1216.0
2014-Dec-14 11:34N 53°33' W 003°50'1818.1
2014-Dec-14 10:33N 53°32' W 003°19'1211.8
2014-Dec-14 09:33N 53°27' W 003°01'0 0.4
2014-Dec-14 08:28N 53°27' W 003°01'0 0.0
2014-Dec-14 07:28N 53°27' W 003°01'0 0.0
2014-Dec-14 06:33N 53°27' W 003°01'0 0.0
2014-Dec-14 05:33N 53°27' W 003°01'1 0.6
2014-Dec-14 04:34N 53°27' W 003°01'1515.2
2014-Dec-14 03:33N 53°31' W 003°25'2019.5
2014-Dec-14 02:33N 53°33' W 003°59'2 0.1
2014-Dec-13 12:31N 53°34' W 003°60'1717.6
2014-Dec-13 11:33N 53°33' W 003°31'1615.9
2014-Dec-13 10:33N 53°30' W 003°05'4 3.6
2014-Dec-13 09:33N 53°27' W 003°01'0 0.4
2014-Dec-13 08:31N 53°27' W 003°01'0 0.0
2014-Dec-13 07:32N 53°27' W 003°01'0 0.0
2014-Dec-13 06:30N 53°27' W 003°01'0 0.0
2014-Dec-13 05:30N 53°27' W 003°01'1 0.6
2014-Dec-13 04:34N 53°27' W 003°02'2114.9
2014-Dec-13 03:09N 53°31' W 003°37'1016.5
2014-Dec-13 02:34N 53°32' W 003°53'3 0.2
2014-Dec-12 13:11N 53°33' W 003°57'1219.1
2014-Dec-12 12:33N 53°33' W 003°36'1817.8
2014-Dec-12 11:33N 53°31' W 003°07'5 4.9
2014-Dec-12 10:28N 53°27' W 003°01'0 0.5
2014-Dec-12 09:33N 53°27' W 003°01'0 0.0
2014-Dec-12 08:33N 53°27' W 003°01'0 0.0
2014-Dec-12 07:32N 53°27' W 003°01'0 0.0
2014-Dec-12 06:32N 53°27' W 003°01'0 0.4
2014-Dec-12 05:34N 53°27' W 003°01'3 3.0
2014-Dec-12 04:34N 53°29' W 003°05'1211.7
2014-Dec-12 03:33N 53°31' W 003°24'1716.5
2014-Dec-12 02:32N 53°31' W 003°53'3 0.2
2014-Dec-11 12:33N 53°33' W 003°50'1817.7
2014-Dec-11 11:33N 53°32' W 003°20'1212.2
2014-Dec-11 10:33N 53°27' W 003°01'1 0.4
2014-Dec-11 09:22N 53°27' W 003°01'0 0.0
2014-Dec-11 08:33N 53°27' W 003°01'0 0.0
2014-Dec-11 07:33N 53°27' W 003°01'0 0.0
2014-Dec-11 06:33N 53°27' W 003°01'0 0.0
2014-Dec-11 05:33N 53°27' W 003°01'1 0.6
2014-Dec-11 04:33N 53°27' W 003°02'1312.8
2014-Dec-11 03:33N 53°31' W 003°22'1818.1
2014-Dec-11 02:32N 53°32' W 003°53'  

Dump ship's entire track history